createdAt,value
2023-03-22T00:02:08.522Z,27.00
2023-03-22T00:04:35.196Z,27.00
2023-03-22T00:07:01.892Z,27.00
2023-03-22T00:09:28.577Z,26.90
2023-03-22T00:11:55.620Z,26.90
2023-03-22T00:14:22.225Z,26.90
2023-03-22T00:16:49.302Z,27.00
2023-03-22T00:19:17.271Z,26.90
2023-03-22T00:21:44.406Z,26.90
2023-03-22T00:24:11.091Z,26.90
2023-03-22T00:26:37.970Z,26.90
2023-03-22T00:29:04.791Z,26.90
2023-03-22T00:31:31.871Z,26.90
2023-03-22T00:33:58.523Z,26.80
2023-03-22T00:36:25.140Z,26.80
2023-03-22T00:38:52.186Z,26.80
2023-03-22T00:41:23.819Z,26.80
2023-03-22T00:43:51.379Z,26.80
2023-03-22T00:46:20.979Z,26.80
2023-03-22T00:48:48.277Z,26.80
2023-03-22T00:51:16.136Z,26.80
2023-03-22T00:53:43.769Z,26.90
2023-03-22T00:56:15.886Z,26.80
2023-03-22T00:58:43.572Z,26.80
2023-03-22T01:01:13.825Z,26.80
2023-03-22T01:03:42.345Z,26.80
2023-03-22T01:06:09.866Z,26.80
2023-03-22T01:08:38.768Z,26.70
2023-03-22T01:11:07.045Z,26.70
2023-03-22T01:13:34.375Z,26.70
2023-03-22T01:16:01.015Z,26.70
2023-03-22T01:18:27.633Z,26.70
2023-03-22T01:20:54.800Z,26.70
2023-03-22T01:23:21.562Z,26.70
2023-03-22T01:25:48.247Z,26.70
2023-03-22T01:28:14.898Z,26.70
2023-03-22T01:30:42.059Z,26.80
2023-03-22T01:33:09.080Z,26.70
2023-03-22T01:35:37.006Z,26.70
2023-03-22T01:38:04.041Z,26.50
2023-03-22T01:40:30.875Z,26.70
2023-03-22T01:42:57.806Z,26.60
2023-03-22T01:45:24.371Z,26.60
2023-03-22T01:47:56.224Z,26.60
2023-03-22T01:50:24.427Z,26.60
2023-03-22T01:52:52.091Z,26.60
2023-03-22T01:55:23.240Z,26.70
2023-03-22T01:57:51.157Z,26.60
2023-03-22T02:00:20.506Z,26.60
2023-03-22T02:02:50.960Z,26.60
2023-03-22T02:05:19.365Z,26.60
2023-03-22T02:07:46.192Z,26.60
2023-03-22T02:10:19.483Z,26.60
2023-03-22T02:12:55.803Z,26.60
2023-03-22T02:15:27.832Z,26.60
2023-03-22T02:18:22.146Z,26.60
2023-03-22T02:20:55.136Z,26.60
2023-03-22T02:23:46.391Z,26.50
2023-03-22T02:26:47.235Z,26.50
2023-03-22T02:29:38.484Z,26.50
2023-03-22T02:32:07.880Z,26.60
2023-03-22T02:35:11.061Z,26.50
2023-03-22T02:37:43.527Z,26.50
2023-03-22T02:40:34.506Z,26.50
2023-03-22T02:43:08.575Z,26.50
2023-03-22T02:45:56.332Z,26.50
2023-03-22T02:48:31.679Z,26.50
2023-03-22T02:51:09.640Z,26.50
2023-03-22T02:53:52.831Z,26.50
2023-03-22T02:56:44.463Z,26.50
2023-03-22T02:59:12.649Z,26.50
2023-03-22T03:02:01.537Z,26.40
2023-03-22T03:04:34.394Z,26.50
2023-03-22T03:07:09.346Z,26.50
2023-03-22T03:09:39.855Z,26.50
2023-03-22T03:12:21.154Z,26.60
2023-03-22T03:14:48.313Z,26.50
2023-03-22T03:17:38.311Z,26.50
2023-03-22T03:20:16.785Z,26.40
2023-03-22T03:23:16.661Z,26.50
2023-03-22T03:25:59.140Z,26.40
2023-03-22T03:28:38.081Z,26.40
2023-03-22T03:31:47.343Z,26.50
2023-03-22T03:34:32.147Z,26.40
2023-03-22T03:37:08.184Z,26.50
2023-03-22T03:39:41.377Z,26.50
2023-03-22T03:42:12.559Z,26.40
2023-03-22T03:44:39.692Z,26.40
2023-03-22T03:47:08.391Z,26.50
2023-03-22T03:49:35.897Z,26.40
2023-03-22T03:52:05.068Z,26.40
2023-03-22T03:54:32.064Z,26.40
2023-03-22T03:56:58.806Z,26.60
2023-03-22T03:59:25.551Z,26.40
2023-03-22T04:01:52.666Z,26.40
2023-03-22T04:04:26.697Z,26.40
2023-03-22T04:06:59.132Z,26.50
2023-03-22T04:09:27.878Z,26.40
2023-03-22T04:11:55.849Z,26.40
2023-03-22T04:14:23.216Z,26.40
2023-03-22T04:16:50.455Z,26.40
2023-03-22T04:19:17.510Z,26.50
2023-03-22T04:21:44.430Z,26.40
2023-03-22T04:24:12.204Z,26.40
2023-03-22T04:26:38.950Z,26.40
2023-03-22T04:29:06.037Z,26.40
2023-03-22T04:31:36.768Z,26.40
2023-03-22T04:34:05.771Z,26.40
2023-03-22T04:36:36.276Z,26.40
2023-03-22T04:39:05.781Z,26.40
2023-03-22T04:41:33.720Z,26.40
2023-03-22T04:44:03.381Z,26.40
2023-03-22T04:46:31.490Z,26.40
2023-03-22T04:48:58.795Z,26.40
2023-03-22T04:51:26.377Z,26.40
2023-03-22T04:53:53.938Z,26.50
2023-03-22T04:56:21.553Z,26.50
2023-03-22T04:58:48.348Z,26.50
2023-03-22T05:01:16.360Z,26.50
2023-03-22T05:03:45.626Z,26.60
2023-03-22T05:06:12.491Z,26.60
2023-03-22T05:08:39.261Z,26.60
2023-03-22T05:11:08.864Z,26.70
2023-03-22T05:13:37.384Z,26.70
2023-03-22T05:16:05.687Z,26.70
2023-03-22T05:18:32.773Z,26.80
2023-03-22T05:21:00.928Z,26.80
2023-03-22T05:23:27.592Z,26.90
2023-03-22T05:25:54.482Z,26.90
2023-03-22T05:28:22.231Z,27.00
2023-03-22T05:30:49.443Z,27.00
2023-03-22T05:33:21.498Z,27.00
2023-03-22T05:35:49.572Z,27.00
2023-03-22T05:38:16.577Z,27.10
2023-03-22T05:40:44.632Z,27.10
2023-03-22T05:43:11.384Z,27.20
2023-03-22T05:45:38.303Z,27.20
2023-03-22T05:48:05.644Z,27.20
2023-03-22T05:50:33.047Z,27.20
2023-03-22T05:52:59.859Z,27.30
2023-03-22T05:55:26.705Z,27.30
2023-03-22T05:57:54.709Z,27.40
2023-03-22T06:00:21.792Z,27.30
2023-03-22T06:02:49.832Z,27.40
2023-03-22T06:05:17.421Z,27.40
2023-03-22T06:07:44.742Z,27.60
2023-03-22T06:10:13.727Z,27.40
2023-03-22T06:12:40.378Z,27.50
2023-03-22T06:15:08.275Z,27.40
2023-03-22T06:17:35.806Z,27.50
2023-03-22T06:20:11.060Z,27.50
2023-03-22T06:22:38.857Z,27.50
2023-03-22T06:25:07.247Z,27.50
2023-03-22T06:27:34.080Z,27.60
2023-03-22T06:30:00.971Z,27.60
2023-03-22T06:32:28.209Z,27.60
2023-03-22T06:34:55.326Z,27.60
2023-03-22T06:37:23.287Z,27.60
2023-03-22T06:39:51.209Z,27.60
2023-03-22T06:42:17.952Z,27.60
2023-03-22T06:44:44.684Z,27.60
2023-03-22T06:47:11.947Z,27.70
2023-03-22T06:49:39.321Z,27.70
2023-03-22T06:52:06.356Z,27.70
2023-03-22T06:54:33.203Z,27.80
2023-03-22T06:57:00.279Z,27.70
2023-03-22T06:59:27.136Z,27.80
2023-03-22T07:01:53.843Z,27.80
2023-03-22T07:04:20.633Z,28.00
2023-03-22T07:06:47.346Z,27.80
2023-03-22T07:09:13.966Z,27.80
2023-03-22T07:11:40.571Z,27.80
2023-03-22T07:14:07.432Z,27.90
2023-03-22T07:16:34.024Z,27.90
2023-03-22T07:19:00.759Z,27.90
2023-03-22T07:21:27.445Z,27.90
2023-03-22T07:23:55.085Z,27.90
2023-03-22T07:26:21.856Z,28.00
2023-03-22T07:28:48.485Z,28.00
2023-03-22T07:31:15.726Z,28.00
2023-03-22T07:33:42.338Z,28.00
2023-03-22T07:36:09.566Z,28.10
2023-03-22T07:38:36.501Z,28.10
2023-03-22T07:41:03.542Z,28.10
2023-03-22T07:43:30.221Z,28.20
2023-03-22T07:45:56.967Z,28.20
2023-03-22T07:48:23.992Z,28.30
2023-03-22T07:50:56.319Z,28.30
2023-03-22T07:53:23.030Z,28.30
2023-03-22T07:55:49.796Z,28.30
2023-03-22T07:58:16.764Z,28.40
2023-03-22T08:00:43.355Z,28.40
2023-03-22T08:03:12.237Z,28.50
2023-03-22T08:05:43.569Z,28.50
2023-03-22T08:08:10.968Z,28.50
2023-03-22T08:10:37.876Z,28.50
2023-03-22T08:13:04.891Z,28.50
2023-03-22T08:15:31.795Z,28.50
2023-03-22T08:17:58.415Z,28.50
2023-03-22T08:20:27.224Z,28.50
2023-03-22T08:22:54.745Z,28.50
2023-03-22T08:25:22.088Z,28.50
2023-03-22T08:27:48.859Z,28.60
2023-03-22T08:30:15.934Z,28.60
2023-03-22T08:32:42.656Z,28.60
2023-03-22T08:35:09.979Z,28.60
2023-03-22T08:37:36.728Z,28.60
2023-03-22T08:40:07.204Z,28.60
2023-03-22T08:42:33.977Z,28.60
2023-03-22T08:45:00.753Z,28.70
2023-03-22T08:47:27.562Z,28.80
2023-03-22T08:49:54.218Z,28.60
2023-03-22T08:52:20.831Z,28.70
2023-03-22T08:54:47.470Z,28.60
2023-03-22T08:57:15.036Z,28.60
2023-03-22T08:59:41.638Z,28.70
2023-03-22T09:02:09.874Z,28.80
2023-03-22T09:04:36.699Z,28.70
2023-03-22T09:07:03.370Z,28.70
2023-03-22T09:09:30.113Z,28.70
2023-03-22T09:11:58.059Z,28.70
2023-03-22T09:14:24.750Z,28.70
2023-03-22T09:16:51.752Z,28.90
2023-03-22T09:19:18.480Z,28.80
2023-03-22T09:21:45.456Z,28.80
2023-03-22T09:24:12.074Z,28.70
2023-03-22T09:26:38.905Z,28.80
2023-03-22T09:29:05.526Z,28.80
2023-03-22T09:31:32.243Z,28.80
2023-03-22T09:33:58.908Z,28.80
2023-03-22T09:36:25.596Z,28.90
2023-03-22T09:38:52.233Z,28.90
2023-03-22T09:41:27.125Z,28.90
2023-03-22T09:43:58.510Z,28.90
2023-03-22T09:46:37.560Z,29.00
2023-03-22T09:49:14.197Z,28.90
2023-03-22T09:51:47.434Z,29.00
2023-03-22T09:54:38.361Z,29.00
2023-03-22T09:57:29.306Z,29.00
2023-03-22T10:00:25.436Z,29.00
2023-03-22T10:03:05.312Z,29.10
2023-03-22T10:05:36.997Z,29.30
2023-03-22T10:08:26.139Z,29.20
2023-03-22T10:10:53.074Z,29.20
2023-03-22T10:13:35.509Z,29.30
2023-03-22T10:16:07.160Z,29.30
2023-03-22T10:18:48.532Z,29.40
2023-03-22T10:21:17.248Z,29.50
2023-03-22T10:23:52.206Z,29.50
2023-03-22T10:26:24.446Z,29.60
2023-03-22T10:29:03.980Z,29.60
2023-03-22T10:31:32.083Z,29.70
2023-03-22T10:34:13.264Z,29.70
2023-03-22T10:36:41.080Z,29.80
2023-03-22T10:39:16.645Z,29.90
2023-03-22T10:41:44.002Z,29.80
2023-03-22T10:44:17.969Z,29.80
2023-03-22T10:46:46.020Z,29.80
2023-03-22T10:49:32.708Z,29.80
2023-03-22T10:52:04.588Z,29.80
2023-03-22T10:54:31.744Z,29.80
2023-03-22T10:56:58.417Z,29.80
2023-03-22T11:00:06.615Z,29.80
2023-03-22T11:02:33.556Z,29.80
2023-03-22T11:05:05.567Z,30.00
2023-03-22T11:07:36.741Z,29.80
2023-03-22T11:10:09.256Z,29.90
2023-03-22T11:13:08.680Z,29.70
2023-03-22T11:15:39.122Z,29.70
2023-03-22T11:18:17.473Z,29.70
2023-03-22T11:20:59.072Z,29.70
2023-03-22T11:23:26.473Z,29.70
2023-03-22T11:25:56.602Z,29.70
2023-03-22T11:28:32.912Z,29.70
2023-03-22T11:31:13.278Z,29.70
2023-03-22T11:33:56.835Z,29.70
2023-03-22T11:36:24.268Z,29.60
2023-03-22T11:38:58.153Z,29.60
2023-03-22T11:41:27.962Z,29.60
2023-03-22T11:44:00.444Z,29.60
2023-03-22T11:46:28.341Z,29.60
2023-03-22T11:49:01.278Z,29.60
2023-03-22T11:51:32.702Z,29.60
2023-03-22T11:54:08.733Z,29.60
2023-03-22T11:56:41.374Z,29.60
2023-03-22T11:59:14.443Z,29.60
2023-03-22T12:01:48.909Z,29.60
2023-03-22T12:04:22.456Z,29.60
2023-03-22T12:06:52.532Z,29.70
2023-03-22T12:09:43.643Z,29.70
2023-03-22T12:12:17.855Z,29.70
2023-03-22T12:14:51.292Z,29.70
2023-03-22T12:17:28.844Z,29.70
2023-03-22T12:20:12.226Z,29.70
2023-03-22T12:22:43.258Z,29.80
2023-03-22T12:25:17.542Z,29.80
2023-03-22T12:27:50.651Z,29.80
2023-03-22T12:30:22.040Z,30.00
2023-03-22T12:32:59.433Z,29.80
2023-03-22T12:35:31.457Z,29.80
2023-03-22T12:38:01.966Z,29.80
2023-03-22T12:40:39.772Z,29.80
2023-03-22T12:43:40.830Z,29.80
2023-03-22T12:46:17.134Z,29.80
2023-03-22T12:48:48.840Z,29.80
2023-03-22T12:51:15.564Z,29.80
2023-03-22T12:54:04.531Z,29.80
2023-03-22T12:56:41.189Z,29.80
2023-03-22T12:59:37.865Z,29.80
2023-03-22T13:02:22.845Z,29.80
2023-03-22T13:04:52.715Z,29.80
2023-03-22T13:07:31.530Z,29.80
2023-03-22T13:10:00.074Z,29.80
2023-03-22T13:12:31.666Z,29.80
2023-03-22T13:15:31.448Z,29.80
2023-03-22T13:18:02.929Z,29.80
2023-03-22T13:20:34.016Z,29.80
2023-03-22T13:23:04.350Z,29.80
2023-03-22T13:25:36.594Z,29.70
2023-03-22T13:28:26.432Z,29.70
2023-03-22T13:30:55.864Z,29.70
2023-03-22T13:33:34.676Z,29.70
2023-03-22T13:36:25.607Z,29.70
2023-03-22T13:39:03.068Z,29.60
2023-03-22T13:41:32.838Z,29.60
2023-03-22T13:44:01.955Z,29.60
2023-03-22T13:46:52.704Z,29.60
2023-03-22T13:49:28.417Z,29.60
2023-03-22T13:52:00.589Z,29.60
2023-03-22T13:54:41.331Z,29.50
2023-03-22T13:57:37.582Z,29.50
2023-03-22T14:00:19.727Z,29.50
2023-03-22T14:02:49.432Z,29.50
2023-03-22T14:05:21.200Z,29.40
2023-03-22T14:07:56.231Z,29.40
2023-03-22T14:10:28.450Z,29.40
2023-03-22T14:13:00.894Z,29.40
2023-03-22T14:15:32.419Z,29.30
2023-03-22T14:18:01.221Z,29.30
2023-03-22T14:20:33.627Z,29.30
